Time;durP1;ratioP1;P1;durP2;ratioP2;P2;SDS_P1;SDS_P2;PMS_P1;PMS_P2;Temp;Humidity;BMP_temperature;BMP_pressure;BME280_temperature;BME280_humidity;BME280_pressure;Samples;Min_cycle;Max_cycle;Signal;HPM_P1;HPM_P2
2022/04/21 00:00:00;;;;;;;1.13;0.70;;;21.00;49.10;;;;;;5034654;28;20092;-56
2022/04/21 00:02:25;;;;;;;1.98;0.70;;;21.00;49.10;;;;;;5033835;28;20500;-56
2022/04/21 00:04:51;;;;;;;2.88;0.88;;;21.00;49.10;;;;;;5034280;28;20045;-56
2022/04/21 00:07:17;;;;;;;1.70;0.68;;;20.90;49.80;;;;;;5034654;28;20128;-56
2022/04/21 00:09:42;;;;;;;2.20;0.80;;;20.90;49.00;;;;;;5033338;28;20045;-56
2022/04/21 00:12:08;;;;;;;1.45;0.77;;;20.90;49.00;;;;;;5034325;28;20033;-56
2022/04/21 00:14:34;;;;;;;2.58;0.80;;;20.90;49.00;;;;;;5034648;28;20210;-56
2022/04/21 00:16:59;;;;;;;2.90;0.70;;;20.90;49.00;;;;;;5033712;28;20045;-56
2022/04/21 00:19:25;;;;;;;1.58;0.80;;;20.90;49.10;;;;;;5034643;28;20048;-56
2022/04/21 00:24:35;;;;;;;2.42;0.77;;;20.90;49.00;;;;;;5033229;28;20413;-56
2022/04/21 00:27:00;;;;;;;2.42;0.88;;;20.90;49.00;;;;;;5033834;28;20038;-56
2022/04/21 00:29:26;;;;;;;1.65;0.60;;;20.90;49.00;;;;;;5034670;28;20045;-56
2022/04/21 00:31:51;;;;;;;2.05;1.00;;;20.80;49.00;;;;;;5032923;28;20088;-56
2022/04/21 00:34:18;;;;;;;1.55;0.70;;;20.80;49.00;;;;;;5034001;28;20443;-56
2022/04/21 00:36:45;;;;;;;1.65;0.80;;;20.80;48.90;;;;;;5033911;28;20042;-56
2022/04/21 00:39:10;;;;;;;1.70;0.98;;;20.80;48.90;;;;;;5033191;28;20045;-56
2022/04/21 00:41:36;;;;;;;1.70;0.70;;;20.80;48.90;;;;;;5034040;28;20099;-56
2022/04/21 00:44:01;;;;;;;1.83;0.82;;;20.80;49.00;;;;;;5033618;28;20045;-56
2022/04/21 00:46:27;;;;;;;1.65;0.90;;;20.80;49.60;;;;;;5032229;28;20037;-56
2022/04/21 00:48:52;;;;;;;1.55;0.70;;;20.80;48.90;;;;;;5032325;28;20045;-56
2022/04/21 00:51:18;;;;;;;2.22;0.70;;;20.80;48.90;;;;;;5032803;28;20046;-56
2022/04/21 00:53:43;;;;;;;1.23;0.60;;;20.80;48.90;;;;;;5032141;28;20136;-56
2022/04/21 00:56:09;;;;;;;1.05;0.60;;;20.80;48.90;;;;;;5032615;28;20042;-56
2022/04/21 00:58:35;;;;;;;2.22;0.77;;;20.80;48.90;;;;;;5033044;28;20053;-56
2022/04/21 01:01:01;;;;;;;2.17;0.70;;;20.80;48.90;;;;;;5032013;28;20045;-56
2022/04/21 01:03:26;;;;;;;1.90;0.90;;;20.70;48.80;;;;;;5033622;28;20535;-56
2022/04/21 01:05:52;;;;;;;1.83;0.80;;;20.70;48.80;;;;;;5014773;28;20183;-56
2022/04/21 01:08:17;;;;;;;1.60;0.70;;;20.70;48.80;;;;;;5033522;28;20071;-56
2022/04/21 01:10:43;;;;;;;1.20;0.57;;;20.70;48.80;;;;;;5033133;28;20041;-56
2022/04/21 01:13:10;;;;;;;1.52;0.55;;;20.70;48.80;;;;;;5032822;28;20037;-56
2022/04/21 01:15:37;;;;;;;1.00;0.57;;;20.70;49.60;;;;;;5032377;28;20042;-56
2022/04/21 01:18:03;;;;;;;1.45;0.60;;;20.70;48.90;;;;;;5033221;28;20037;-56
2022/04/21 01:20:29;;;;;;;2.03;0.80;;;20.70;48.80;;;;;;5032443;28;20099;-56
2022/04/21 01:22:54;;;;;;;2.30;0.90;;;20.70;48.80;;;;;;5032932;28;20391;-56
2022/04/21 01:25:20;;;;;;;2.28;0.98;;;20.70;48.80;;;;;;5033316;28;20045;-56
2022/04/21 01:27:47;;;;;;;1.35;0.70;;;20.70;48.80;;;;;;5032297;28;20100;-56
2022/04/21 01:30:13;;;;;;;1.33;0.70;;;20.70;48.80;;;;;;5032943;28;20430;-56
2022/04/21 01:32:51;;;;;;;2.00;0.88;;;20.60;48.70;;;;;;5032635;28;20064;-56
2022/04/21 01:35:16;;;;;;;2.33;1.00;;;20.70;48.80;;;;;;5032291;28;20045;-56
2022/04/21 01:43:10;;;;;;;1.20;0.63;;;20.60;48.70;;;;;;5033045;28;20049;-56
2022/04/21 01:45:36;;;;;;;1.55;0.70;;;20.60;48.70;;;;;;5032660;28;20041;-56
2022/04/21 01:48:02;;;;;;;2.03;0.70;;;20.60;48.80;;;;;;5031843;28;20053;-56
2022/04/21 01:50:28;;;;;;;1.75;0.70;;;20.60;48.70;;;;;;5032725;28;20045;-56
2022/04/21 01:52:53;;;;;;;1.67;0.70;;;20.60;48.70;;;;;;5032717;28;20473;-56
2022/04/21 01:55:19;;;;;;;1.48;0.70;;;20.60;48.80;;;;;;5031760;28;20045;-56
2022/04/21 01:57:45;;;;;;;1.98;0.73;;;20.60;48.70;;;;;;5032360;28;20096;-56
2022/04/21 02:00:10;;;;;;;2.05;0.90;;;20.60;48.70;;;;;;5032319;28;20098;-56
2022/04/21 02:02:36;;;;;;;1.73;0.68;;;20.50;48.60;;;;;;5031638;28;20044;-56
2022/04/21 02:05:02;;;;;;;2.80;0.85;;;20.50;48.60;;;;;;5031834;28;20043;-56
2022/04/21 02:07:28;;;;;;;1.08;0.60;;;20.50;48.60;;;;;;5032150;28;20419;-56
2022/04/21 02:09:54;;;;;;;2.47;0.98;;;20.50;48.60;;;;;;5031560;28;20045;-56
2022/04/21 02:12:21;;;;;;;1.30;0.90;;;20.50;48.60;;;;;;5032502;28;20041;-56
2022/04/21 02:14:47;;;;;;;2.10;0.90;;;20.50;48.60;;;;;;5032349;28;20132;-56
2022/04/21 02:17:13;;;;;;;1.38;0.65;;;20.50;48.60;;;;;;5031792;28;20042;-56
2022/04/21 02:19:38;;;;;;;1.90;0.80;;;20.50;48.60;;;;;;5032447;28;20561;-56
2022/04/21 02:22:04;;;;;;;3.00;0.80;;;20.50;48.60;;;;;;5032233;28;20049;-55
2022/04/21 02:24:29;;;;;;;2.67;0.80;;;20.50;48.60;;;;;;5031698;28;20128;-57
2022/04/21 02:26:55;;;;;;;2.00;0.73;;;20.50;48.70;;;;;;5032187;28;20046;-57
2022/04/21 02:29:20;;;;;;;1.42;0.73;;;20.50;48.60;;;;;;5032224;28;20076;-57
2022/04/21 02:31:46;;;;;;;1.90;0.70;;;20.50;48.70;;;;;;5030970;28;20485;-58
2022/04/21 02:34:11;;;;;;;1.88;0.75;;;20.50;48.60;;;;;;5032559;28;20091;-58
2022/04/21 02:36:38;;;;;;;1.48;0.65;;;20.50;48.70;;;;;;5031826;28;20045;-58
2022/04/21 02:39:04;;;;;;;1.50;0.70;;;20.40;48.60;;;;;;5032522;28;20053;-58
2022/04/21 02:41:29;;;;;;;1.25;0.65;;;20.40;48.60;;;;;;5031986;28;20107;-58
2022/04/21 02:43:55;;;;;;;1.35;0.70;;;20.40;48.60;;;;;;5031438;28;20059;-58
2022/04/21 02:46:21;;;;;;;2.05;0.70;;;20.40;48.60;;;;;;5032108;28;20047;-58
2022/04/21 02:48:46;;;;;;;1.63;0.90;;;20.40;48.60;;;;;;5030915;28;20045;-58
2022/04/21 02:51:12;;;;;;;1.17;0.70;;;20.40;48.60;;;;;;5031628;28;20044;-58
2022/04/21 02:59:06;;;;;;;1.15;0.65;;;20.40;48.70;;;;;;5031635;28;20045;-58
2022/04/21 03:01:31;;;;;;;1.60;0.77;;;20.40;48.70;;;;;;5030958;28;20046;-58
2022/04/21 03:03:56;;;;;;;1.38;0.80;;;20.40;48.80;;;;;;5031888;28;20382;-58
2022/04/21 03:06:22;;;;;;;1.85;1.00;;;20.30;48.70;;;;;;5031252;28;20087;-58
2022/04/21 03:08:48;;;;;;;2.70;1.00;;;20.40;48.80;;;;;;5032397;28;20049;-58
2022/04/21 03:11:13;;;;;;;1.77;0.70;;;20.40;48.80;;;;;;5035445;28;20448;-58
2022/04/21 03:13:39;;;;;;;2.72;0.80;;;20.40;48.80;;;;;;5034792;28;20041;-58
2022/04/21 03:16:04;;;;;;;1.63;0.73;;;20.40;48.80;;;;;;5035891;28;20508;-58
2022/04/21 03:18:30;;;;;;;1.60;0.90;;;20.40;48.80;;;;;;5035817;28;20045;-59
2022/04/21 03:26:43;;;;;;;1.48;0.70;;;20.40;48.70;;;;;;4973439;28;20051;-59
2022/04/21 03:29:09;;;;;;;1.92;0.80;;;20.40;48.70;;;;;;5010101;28;20057;-58
2022/04/21 03:31:35;;;;;;;1.70;0.70;;;20.40;48.70;;;;;;5035240;28;20416;-58
2022/04/21 03:34:02;;;;;;;1.10;0.73;;;20.40;48.70;;;;;;5034263;28;20386;-58
2022/04/21 03:36:28;;;;;;;1.50;0.80;;;20.40;48.60;;;;;;5035398;28;20038;-58
2022/04/21 03:38:53;;;;;;;1.05;0.70;;;20.40;48.70;;;;;;5035064;28;20045;-58
2022/04/21 03:41:19;;;;;;;1.77;0.90;;;20.40;48.70;;;;;;5034449;28;20128;-58
2022/04/21 03:43:44;;;;;;;1.75;0.70;;;20.40;48.60;;;;;;5034925;28;20088;-58
2022/04/21 03:46:10;;;;;;;1.35;0.77;;;20.40;48.60;;;;;;5035070;28;20049;-58
2022/04/21 03:48:35;;;;;;;1.65;1.05;;;20.40;48.60;;;;;;5034314;28;20045;-58
2022/04/21 03:51:01;;;;;;;2.83;0.93;;;20.40;48.60;;;;;;5034709;28;20413;-58
2022/04/21 03:53:26;;;;;;;1.67;0.60;;;20.40;48.60;;;;;;5035186;28;20049;-58
2022/04/21 03:55:52;;;;;;;3.17;0.95;;;20.40;48.70;;;;;;5033642;28;20080;-58
2022/04/21 03:58:17;;;;;;;1.67;0.70;;;20.40;48.80;;;;;;5035019;28;20045;-58
2022/04/21 04:00:43;;;;;;;1.55;0.70;;;20.40;48.80;;;;;;5031921;28;20041;-58
2022/04/21 04:03:08;;;;;;;1.70;0.82;;;20.50;48.80;;;;;;5029772;28;20045;-58
2022/04/21 04:05:34;;;;;;;1.52;0.90;;;20.40;48.80;;;;;;5033862;28;20045;-58
2022/04/21 04:10:53;;;;;;;1.88;0.70;;;20.50;48.80;;;;;;5034335;28;20128;-58
2022/04/21 04:13:27;;;;;;;1.08;0.90;;;20.40;48.80;;;;;;5034756;28;20033;-58
2022/04/21 04:15:53;;;;;;;1.90;1.00;;;20.50;48.80;;;;;;5033367;28;20112;-58
2022/04/21 04:18:19;;;;;;;1.73;0.75;;;20.50;48.70;;;;;;5034629;28;20052;-58
2022/04/21 04:20:45;;;;;;;1.63;0.80;;;20.50;48.70;;;;;;5033737;28;20041;-58
2022/04/21 04:23:14;;;;;;;1.23;0.80;;;20.50;48.70;;;;;;5033721;28;20052;-58
2022/04/21 04:25:39;;;;;;;;;;;20.50;48.70;;;;;;5034372;28;20132;-58
2022/04/21 04:28:05;;;;;;;1.20;0.70;;;20.50;48.80;;;;;;5034088;28;20004;-58
2022/04/21 04:30:32;;;;;;;2.25;0.85;;;20.50;48.80;;;;;;5033326;28;20048;-58
2022/04/21 04:32:57;;;;;;;1.25;0.68;;;20.50;48.80;;;;;;5034121;28;20160;-58
2022/04/21 04:35:25;;;;;;;2.60;0.88;;;20.50;48.80;;;;;;5034283;28;20080;-58
2022/04/21 04:37:53;;;;;;;1.42;0.85;;;20.50;48.80;;;;;;5033137;28;20041;-58
2022/04/21 04:40:19;;;;;;;1.85;0.80;;;20.50;48.80;;;;;;5034214;28;20481;-57
2022/04/21 04:42:45;;;;;;;2.15;0.80;;;20.50;48.80;;;;;;5033631;28;20075;-58
2022/04/21 04:48:11;;;;;;;1.75;0.88;;;20.50;48.80;;;;;;4976296;28;20046;-58
2022/04/21 04:50:37;;;;;;;1.00;0.70;;;20.50;48.80;;;;;;5024176;28;20096;-58
2022/04/21 04:53:02;;;;;;;1.50;0.80;;;20.60;48.80;;;;;;5033705;28;20065;-58
2022/04/21 04:55:30;;;;;;;1.42;0.82;;;20.60;48.80;;;;;;5033447;28;20045;-58
2022/04/21 04:57:55;;;;;;;2.70;0.90;;;20.60;48.80;;;;;;5032821;28;20042;-58
2022/04/21 05:00:21;;;;;;;1.45;0.82;;;20.60;48.80;;;;;;5033727;28;20046;-57
2022/04/21 05:02:46;;;;;;;1.67;1.00;;;20.60;48.80;;;;;;5033204;28;20440;-58
2022/04/21 05:05:12;;;;;;;1.80;0.88;;;20.60;48.70;;;;;;5032846;28;20095;-57
2022/04/21 05:07:39;;;;;;;1.50;0.80;;;20.60;48.70;;;;;;5033613;28;20088;-58
2022/04/21 05:10:06;;;;;;;2.50;0.82;;;20.70;48.70;;;;;;5033500;28;20049;-58
2022/04/21 05:12:31;;;;;;;1.50;0.80;;;20.70;48.70;;;;;;5032980;28;20038;-58
2022/04/21 05:14:58;;;;;;;1.73;0.90;;;20.80;48.70;;;;;;5033247;28;20037;-58
2022/04/21 05:17:23;;;;;;;0.95;0.68;;;20.80;48.70;;;;;;5033669;28;20124;-58
2022/04/21 05:19:50;;;;;;;1.50;0.80;;;20.80;48.60;;;;;;5047843;28;20120;-58
2022/04/21 05:22:15;;;;;;;1.73;0.80;;;20.80;48.60;;;;;;5033126;28;20046;-58
2022/04/21 05:24:41;;;;;;;1.98;1.10;;;20.80;48.60;;;;;;5048263;28;20138;-58
2022/04/21 05:27:07;;;;;;;2.00;0.68;;;20.80;48.70;;;;;;5048048;28;20393;-58
2022/04/21 05:32:20;;;;;;;1.58;0.80;;;20.80;48.70;;;;;;5032454;28;20136;-58
2022/04/21 05:34:46;;;;;;;1.23;0.80;;;20.80;48.80;;;;;;5031789;28;20065;-58
2022/04/21 05:37:12;;;;;;;1.20;0.70;;;20.80;48.80;;;;;;5033019;28;20059;-58
2022/04/21 05:39:37;;;;;;;2.22;1.00;;;20.80;48.70;;;;;;5032326;28;20404;-58
2022/04/21 05:42:03;;;;;;;1.85;0.80;;;20.80;48.80;;;;;;5032848;28;20052;-59
2022/04/21 05:44:29;;;;;;;2.15;0.90;;;20.80;48.90;;;;;;5031734;28;20045;-58
2022/04/21 05:46:55;;;;;;;1.60;1.05;;;20.80;48.90;;;;;;5032017;28;20095;-58
2022/04/21 05:49:21;;;;;;;1.83;1.05;;;20.80;49.00;;;;;;5032809;28;20090;-58
2022/04/21 05:51:48;;;;;;;0.95;0.68;;;20.80;49.00;;;;;;5032314;28;20045;-58
2022/04/21 05:54:14;;;;;;;1.48;0.75;;;20.80;49.00;;;;;;5032240;28;20068;-58
2022/04/21 05:56:39;;;;;;;1.10;0.68;;;20.90;49.20;;;;;;5025450;28;20489;-58
2022/04/21 05:59:05;;;;;;;1.00;0.60;;;20.90;49.20;;;;;;5024076;28;20517;-57
2022/04/21 06:01:31;;;;;;;1.48;0.73;;;20.90;49.30;;;;;;5032031;28;20478;-58
2022/04/21 06:03:56;;;;;;;2.45;1.00;;;20.90;49.40;;;;;;5032209;28;20045;-58
2022/04/21 06:06:22;;;;;;;1.40;0.80;;;20.90;49.30;;;;;;5032118;28;20064;-58
2022/04/21 06:08:47;;;;;;;2.03;0.98;;;20.90;49.40;;;;;;5031571;28;20060;-58
2022/04/21 06:11:13;;;;;;;1.70;0.82;;;20.90;49.40;;;;;;5032525;28;20038;-58
2022/04/21 06:13:41;;;;;;;12.23;1.20;;;20.90;49.40;;;;;;5032337;28;20046;-58
2022/04/21 06:16:06;;;;;;;1.20;0.65;;;21.00;49.40;;;;;;5031835;28;20132;-58
2022/04/21 06:18:32;;;;;;;1.92;0.80;;;20.90;49.40;;;;;;5032802;28;20113;-58
2022/04/21 06:20:57;;;;;;;1.58;0.77;;;21.00;49.50;;;;;;5031955;28;20046;-57
2022/04/21 06:23:23;;;;;;;1.60;0.90;;;21.00;49.50;;;;;;5031609;28;20072;-58
2022/04/21 06:25:51;;;;;;;1.75;0.75;;;21.00;49.60;;;;;;5031083;28;20084;-58
2022/04/21 06:28:17;;;;;;;2.50;0.70;;;21.00;49.60;;;;;;5032085;28;20049;-58
2022/04/21 06:30:42;;;;;;;2.92;0.80;;;21.10;49.70;;;;;;5031140;28;20107;-57
2022/04/21 06:33:08;;;;;;;2.22;1.00;;;21.10;49.70;;;;;;5032471;28;20053;-58
2022/04/21 06:35:33;;;;;;;2.90;0.85;;;21.10;49.80;;;;;;5032289;28;20045;-58
2022/04/21 06:37:59;;;;;;;3.85;0.98;;;21.10;49.80;;;;;;5031210;28;20054;-61
2022/04/21 06:40:24;;;;;;;1.98;0.93;;;21.10;49.90;;;;;;5026434;28;20096;-58
2022/04/21 06:42:50;;;;;;;6.20;1.13;;;21.10;49.90;;;;;;5021030;28;20057;-57
2022/04/21 06:48:04;;;;;;;3.65;0.90;;;21.20;50.20;;;;;;5035764;28;20128;-58
2022/04/21 06:50:29;;;;;;;3.67;0.93;;;21.20;50.20;;;;;;5035500;28;20049;-58
2022/04/21 06:52:55;;;;;;;1.75;0.88;;;21.20;50.90;;;;;;5035847;28;20060;-58
2022/04/21 06:55:20;;;;;;;3.17;0.80;;;21.20;50.40;;;;;;5036042;28;20056;-57
2022/04/21 06:57:46;;;;;;;2.15;1.00;;;21.20;50.40;;;;;;5034589;28;20144;-58
2022/04/21 07:00:12;;;;;;;3.00;1.00;;;21.20;50.40;;;;;;5036097;28;20489;-58
2022/04/21 07:02:38;;;;;;;2.78;1.23;;;21.30;50.50;;;;;;5035914;28;20041;-57
2022/04/21 07:05:05;;;;;;;2.80;0.80;;;21.20;50.50;;;;;;5034284;28;20128;-58
2022/04/21 07:07:30;;;;;;;2.17;0.90;;;21.30;50.50;;;;;;5035897;28;20121;-58
2022/04/21 07:09:56;;;;;;;4.95;1.30;;;21.30;50.50;;;;;;5035414;28;20136;-58
2022/04/21 07:12:32;;;;;;;2.67;0.73;;;21.30;50.50;;;;;;5035187;28;20042;-58
2022/04/21 07:15:02;;;;;;;1.92;0.90;;;21.30;50.50;;;;;;5035143;28;20501;-58
2022/04/21 07:17:27;;;;;;;4.60;1.00;;;21.30;50.40;;;;;;5035670;28;20124;-58
2022/04/21 07:19:53;;;;;;;3.47;1.08;;;21.40;50.50;;;;;;5034636;28;20132;-58
2022/04/21 07:22:20;;;;;;;2.17;0.82;;;21.40;50.40;;;;;;5029081;28;20038;-57
2022/04/21 07:24:46;;;;;;;2.53;0.85;;;21.40;50.40;;;;;;5024173;28;20613;-58
2022/04/21 07:27:12;;;;;;;1.98;0.70;;;21.40;50.40;;;;;;5025475;28;20034;-58
2022/04/21 07:29:37;;;;;;;3.08;0.93;;;21.40;50.40;;;;;;5016713;28;20045;-59
2022/04/21 07:32:04;;;;;;;5.10;1.17;;;21.40;50.50;;;;;;5022992;28;20046;-58
2022/04/21 07:34:29;;;;;;;3.50;1.00;;;21.50;50.60;;;;;;5024448;28;20045;-58
2022/04/21 07:36:55;;;;;;;2.55;1.45;;;21.50;50.70;;;;;;5017776;28;20042;-58
2022/04/21 07:39:20;;;;;;;2.25;0.90;;;21.50;50.70;;;;;;5017273;28;20052;-58
2022/04/21 07:41:46;;;;;;;6.03;0.85;;;21.50;50.60;;;;;;5025407;28;20093;-58
2022/04/21 07:44:12;;;;;;;5.53;0.80;;;21.50;50.70;;;;;;5023080;28;20497;-58
2022/04/21 07:46:37;;;;;;;2.10;0.80;;;21.50;50.70;;;;;;5014604;28;20120;-59
2022/04/21 07:51:47;;;;;;;2.13;1.00;;;21.60;50.90;;;;;;5014740;28;20081;-59
2022/04/21 07:54:12;;;;;;;2.40;0.85;;;21.60;50.90;;;;;;5014491;28;20081;-58
2022/04/21 07:56:38;;;;;;;2.05;1.00;;;21.60;50.90;;;;;;5014833;28;20099;-58
2022/04/21 07:59:03;;;;;;;2.63;1.00;;;21.60;50.90;;;;;;5015231;28;20068;-58
2022/04/21 08:01:29;;;;;;;2.95;0.90;;;21.60;50.90;;;;;;5014539;28;20046;-58
2022/04/21 08:03:55;;;;;;;2.60;0.90;;;21.60;51.00;;;;;;5014471;28;20057;-58
2022/04/21 08:06:20;;;;;;;1.77;0.93;;;21.70;51.00;;;;;;5013990;28;20069;-59
2022/04/21 08:08:46;;;;;;;3.78;1.08;;;21.70;51.00;;;;;;5013919;28;20049;-61
2022/04/21 08:11:12;;;;;;;3.42;0.90;;;21.70;50.80;;;;;;5014856;28;20045;-60
2022/04/21 08:13:37;;;;;;;3.60;1.10;;;21.70;51.20;;;;;;5014979;28;20041;-58
2022/04/21 08:16:03;;;;;;;2.60;0.90;;;21.70;50.40;;;;;;5013911;28;20088;-58
2022/04/21 08:18:28;;;;;;;2.55;0.88;;;21.60;50.30;;;;;;5018072;28;20119;-58
2022/04/21 08:20:58;;;;;;;2.50;1.10;;;21.70;50.20;;;;;;5032552;28;20052;-58
2022/04/21 08:23:25;;;;;;;3.13;1.10;;;21.70;50.10;;;;;;5033542;28;20124;-59
2022/04/21 08:34:04;;;;;;;1.88;0.75;;;21.70;50.00;;;;;;5033256;28;20045;-58
2022/04/21 08:36:29;;;;;;;5.43;1.00;;;21.80;50.00;;;;;;5028171;28;20051;-58
2022/04/21 08:38:55;;;;;;;2.83;0.85;;;21.80;50.70;;;;;;5024539;28;20045;-57
2022/04/21 08:41:20;;;;;;;2.55;0.75;;;21.80;50.00;;;;;;5028254;28;20045;-58
2022/04/21 08:43:46;;;;;;;3.63;0.98;;;21.80;50.10;;;;;;5031834;28;20053;-58
2022/04/21 08:46:15;;;;;;;2.25;0.85;;;21.80;50.00;;;;;;5034154;28;20041;-58
2022/04/21 08:48:41;;;;;;;3.53;1.20;;;21.80;49.90;;;;;;5032515;28;20051;-58
2022/04/21 08:51:08;;;;;;;2.45;0.80;;;21.80;49.80;;;;;;5033182;28;20132;-57
2022/04/21 08:53:34;;;;;;;3.90;0.80;;;21.80;49.80;;;;;;5034164;28;20132;-58
2022/04/21 08:56:00;;;;;;;2.25;0.77;;;21.80;49.70;;;;;;5027972;28;20120;-58
2022/04/21 08:58:26;;;;;;;2.95;1.00;;;21.80;49.70;;;;;;5023378;28;20477;-57
2022/04/21 09:00:54;;;;;;;3.05;1.00;;;21.80;49.70;;;;;;5022184;28;20042;-57
2022/04/21 09:03:19;;;;;;;6.00;0.82;;;21.90;49.70;;;;;;5024944;28;20107;-57
2022/04/21 09:05:45;;;;;;;2.85;1.40;;;21.90;49.90;;;;;;5031406;28;20041;-57
2022/04/21 09:08:21;;;;;;;3.53;0.90;;;21.90;49.80;;;;;;5031994;28;20033;-58
2022/04/21 09:10:47;;;;;;;5.95;1.10;;;21.90;49.40;;;;;;5029877;28;20057;-58
2022/04/21 09:13:12;;;;;;;3.35;0.95;;;21.90;49.60;;;;;;5023893;28;20057;-57
2022/04/21 09:15:43;;;;;;;4.40;0.70;;;21.90;49.80;;;;;;5021153;28;20509;-58
2022/04/21 09:18:10;;;;;;;2.55;1.00;;;21.90;49.90;;;;;;5021563;28;20393;-57
2022/04/21 09:20:36;;;;;;;4.10;1.20;;;21.90;49.90;;;;;;5024095;28;20037;-58
2022/04/21 09:23:05;;;;;;;5.07;1.08;;;21.90;50.00;;;;;;5015696;28;20038;-58
2022/04/21 09:25:31;;;;;;;;;;;22.00;50.10;;;;;;5013305;28;20054;-58
2022/04/21 09:27:57;;;;;;;4.13;0.90;;;21.90;50.10;;;;;;5013163;28;19945;-58
2022/04/21 09:30:24;;;;;;;3.03;0.93;;;21.90;50.00;;;;;;5013550;28;20477;-59
2022/04/21 09:32:55;;;;;;;2.25;0.95;;;22.00;50.20;;;;;;5012471;28;20050;-58
2022/04/21 09:35:22;;;;;;;2.10;0.73;;;21.90;50.20;;;;;;5013575;28;20046;-57
2022/04/21 09:37:50;;;;;;;1.73;0.75;;;22.00;50.20;;;;;;5012629;28;20056;-58
2022/04/21 09:40:17;;;;;;;3.43;0.83;;;21.90;50.10;;;;;;5012305;28;20104;-58
2022/04/21 09:42:42;;;;;;;3.30;0.90;;;22.00;50.20;;;;;;5012775;28;20046;-58
2022/04/21 09:47:56;;;;;;;1.55;0.70;;;22.00;50.10;;;;;;5012543;28;20049;-58
2022/04/21 09:50:24;;;;;;;2.58;0.80;;;22.00;50.10;;;;;;5019346;28;20071;-57
2022/04/21 09:52:51;;;;;;;2.40;0.80;;;22.00;50.30;;;;;;5015626;28;20050;-59
2022/04/21 09:55:27;;;;;;;3.73;1.07;;;22.00;50.60;;;;;;5012810;28;20579;-58
2022/04/21 09:58:04;;;;;;;4.53;1.08;;;22.00;50.60;;;;;;5012925;28;20095;-58
2022/04/21 10:00:29;;;;;;;4.15;0.90;;;22.00;50.60;;;;;;5010809;28;20397;-59
2022/04/21 10:02:55;;;;;;;2.60;1.00;;;22.00;50.70;;;;;;5017712;28;20065;-58
2022/04/21 10:05:21;;;;;;;2.28;0.85;;;22.00;50.70;;;;;;5020223;28;20060;-58
2022/04/21 10:07:46;;;;;;;2.45;0.70;;;22.00;50.70;;;;;;5015789;28;20045;-57
2022/04/21 10:10:12;;;;;;;0.93;0.60;;;22.00;51.50;;;;;;5021365;28;20038;-58
2022/04/21 10:12:37;;;;;;;2.30;0.90;;;22.00;50.70;;;;;;5023442;28;20512;-57
2022/04/21 10:15:04;;;;;;;1.73;0.73;;;22.10;50.70;;;;;;5018850;28;20099;-57
2022/04/21 10:17:29;;;;;;;3.45;0.90;;;22.00;50.70;;;;;;5026872;28;20045;-57
2022/04/21 10:19:55;;;;;;;2.97;0.90;;;22.00;50.70;;;;;;5029604;28;20060;-58
2022/04/21 10:22:20;;;;;;;1.90;0.80;;;22.00;50.70;;;;;;5022368;28;20065;-57
2022/04/21 10:24:46;;;;;;;2.35;0.68;;;22.00;50.70;;;;;;5016518;28;20049;-57
2022/04/21 10:27:34;;;;;;;2.40;0.98;;;22.00;50.70;;;;;;5016098;28;20070;-58
2022/04/21 10:30:00;;;;;;;2.78;0.80;;;22.00;50.50;;;;;;5015910;28;20124;-58
2022/04/21 10:32:51;;;;;;;2.05;0.93;;;22.00;50.50;;;;;;5016345;28;20136;-58
2022/04/21 10:35:40;;;;;;;1.58;0.90;;;22.00;50.50;;;;;;5016024;28;20046;-58
2022/04/21 10:38:18;;;;;;;3.15;0.75;;;22.00;50.50;;;;;;5016375;28;20053;-57
2022/04/21 10:41:03;;;;;;;5.55;0.80;;;22.00;50.60;;;;;;5016242;28;20062;-58
2022/04/21 10:43:50;;;;;;;2.78;0.77;;;22.00;50.60;;;;;;5015506;28;20515;-57
2022/04/21 10:46:20;;;;;;;4.00;0.90;;;22.00;50.70;;;;;;5016522;28;20042;-57
2022/04/21 10:48:45;;;;;;;3.53;1.00;;;22.00;50.70;;;;;;5016224;28;20046;-58
2022/04/21 10:51:11;;;;;;;2.03;0.95;;;22.00;50.70;;;;;;5015488;28;20074;-57
2022/04/21 10:59:30;;;;;;;2.10;0.90;;;22.00;50.60;;;;;;5023256;28;20058;-57
2022/04/21 11:01:56;;;;;;;2.60;1.02;;;22.00;50.50;;;;;;5033146;28;20038;-57
2022/04/21 11:04:23;;;;;;;2.35;1.00;;;22.00;50.50;;;;;;5025903;28;20552;-57
2022/04/21 11:07:11;;;;;;;2.03;0.80;;;22.00;50.50;;;;;;5015603;28;20061;-58
2022/04/21 11:09:37;;;;;;;4.07;0.90;;;22.00;50.40;;;;;;5015817;28;20061;-58
2022/04/21 11:12:05;;;;;;;7.53;1.08;;;22.00;50.40;;;;;;5014573;28;20037;-58
2022/04/21 11:14:32;;;;;;;2.45;0.80;;;22.00;50.20;;;;;;5012542;28;20052;-57
2022/04/21 11:16:58;;;;;;;3.17;1.10;;;22.00;49.90;;;;;;5015565;28;20124;-58
2022/04/21 11:19:31;;;;;;;3.30;1.00;;;22.00;49.60;;;;;;5013773;28;20539;-58
2022/04/21 11:21:57;;;;;;;2.45;0.88;;;22.00;49.40;;;;;;5015742;28;20054;-58
2022/04/21 11:24:23;;;;;;;2.42;1.08;;;22.00;49.50;;;;;;5014654;28;20046;-58
2022/04/21 11:26:55;;;;;;;3.97;0.73;;;22.00;49.40;;;;;;5015427;28;20527;-58
2022/04/21 11:29:21;;;;;;;1.25;0.75;;;22.00;49.40;;;;;;5014656;28;20552;-58
2022/04/21 11:31:46;;;;;;;1.55;0.68;;;22.00;49.40;;;;;;5014339;28;20054;-58
2022/04/21 11:34:12;;;;;;;1.75;0.70;;;22.00;49.40;;;;;;5015580;28;20088;-58
2022/04/21 11:36:40;;;;;;;1.33;0.75;;;22.00;49.30;;;;;;5014200;28;20044;-58
2022/04/21 11:39:08;;;;;;;1.85;0.80;;;22.10;49.40;;;;;;5014758;28;20081;-58
2022/04/21 11:41:34;;;;;;;2.08;0.70;;;22.00;49.40;;;;;;5015278;28;20053;-58
2022/04/21 11:44:01;;;;;;;2.90;0.88;;;22.00;49.30;;;;;;5015278;28;20397;-58
2022/04/21 11:46:26;;;;;;;2.28;0.80;;;22.00;49.20;;;;;;5013562;28;20168;-58
2022/04/21 11:49:00;;;;;;;2.83;0.70;;;22.00;49.20;;;;;;5015243;28;20124;-58
2022/04/21 11:51:26;;;;;;;1.80;0.80;;;22.00;49.20;;;;;;5015455;28;20068;-58
2022/04/21 11:53:52;;;;;;;2.47;0.82;;;22.00;49.30;;;;;;5014199;28;20490;-58
2022/04/21 11:56:18;;;;;;;3.70;0.70;;;22.00;49.30;;;;;;5014954;28;20041;-58
2022/04/21 11:58:44;;;;;;;6.50;2.03;;;22.00;49.30;;;;;;5014989;28;20049;-58
2022/04/21 12:06:52;;;;;;;1.20;0.60;;;22.10;49.30;;;;;;5013961;28;20050;-58
2022/04/21 12:09:19;;;;;;;1.33;0.70;;;22.00;49.20;;;;;;5014866;28;20072;-58
2022/04/21 12:11:49;;;;;;;1.67;0.85;;;22.00;49.20;;;;;;5014866;28;20053;-58
2022/04/21 12:14:16;;;;;;;0.95;0.70;;;22.00;49.20;;;;;;5014112;28;20046;-58
2022/04/21 12:16:55;;;;;;;1.58;0.82;;;22.00;49.90;;;;;;5013358;28;20112;-58
2022/04/21 12:19:33;;;;;;;1.08;0.63;;;22.00;49.20;;;;;;5014862;28;20116;-58
2022/04/21 12:22:01;;;;;;;1.92;0.70;;;22.00;49.10;;;;;;5013925;28;20214;-58
2022/04/21 12:24:29;;;;;;;1.52;0.80;;;22.00;49.10;;;;;;5014785;28;20058;-58
2022/04/21 12:26:55;;;;;;;;;;;22.00;49.10;;;;;;5014899;28;20038;-58
2022/04/21 12:29:21;;;;;;;1.10;0.70;;;22.00;49.20;;;;;;5013582;28;19928;-58
2022/04/21 12:31:54;;;;;;;1.60;0.80;;;22.00;49.20;;;;;;5014057;28;20068;-58
2022/04/21 12:34:24;;;;;;;1.60;0.80;;;22.00;49.00;;;;;;5013519;28;20053;-58
2022/04/21 12:36:57;;;;;;;1.17;0.63;;;22.00;49.00;;;;;;5013677;28;20042;-59
2022/04/21 12:39:23;;;;;;;1.85;0.70;;;22.10;49.00;;;;;;5014356;28;20423;-58
2022/04/21 12:41:48;;;;;;;0.95;0.70;;;22.10;49.00;;;;;;5013061;28;20711;-58
2022/04/21 12:44:14;;;;;;;1.65;0.70;;;22.10;49.00;;;;;;5012924;28;20449;-58
2022/04/21 12:46:43;;;;;;;1.45;0.70;;;22.10;49.00;;;;;;5014209;28;20120;-58
2022/04/21 12:49:09;;;;;;;;;;;22.10;49.00;;;;;;5014467;28;20088;-58
2022/04/21 12:51:35;;;;;;;1.00;0.60;;;22.00;48.80;;;;;;5014462;28;19925;-58
2022/04/21 12:54:00;;;;;;;1.45;0.70;;;22.10;49.00;;;;;;5013842;28;20108;-58
2022/04/21 12:56:34;;;;;;;1.77;0.70;;;22.10;49.00;;;;;;5013580;28;20076;-58
2022/04/21 12:58:59;;;;;;;1.25;0.70;;;22.10;49.00;;;;;;5013847;28;20185;-58
2022/04/21 13:01:26;;;;;;;2.47;1.00;;;22.10;49.00;;;;;;5014268;28;20145;-58
2022/04/21 13:03:51;;;;;;;1.45;0.80;;;22.10;49.00;;;;;;5012707;28;20478;-58
2022/04/21 13:06:27;;;;;;;0.95;0.50;;;22.10;48.90;;;;;;5013969;28;20046;-58
2022/04/21 13:08:53;;;;;;;1.23;0.70;;;22.20;48.90;;;;;;5013824;28;20042;-58
2022/04/21 13:11:19;;;;;;;0.98;0.70;;;22.20;48.80;;;;;;5013046;28;20050;-58
2022/04/21 13:13:44;;;;;;;2.05;0.60;;;22.20;48.80;;;;;;5013577;28;20088;-58
2022/04/21 13:16:10;;;;;;;1.17;0.77;;;22.20;48.80;;;;;;5013942;28;20042;-58
2022/04/21 13:18:35;;;;;;;1.42;0.70;;;22.20;48.70;;;;;;5012015;28;20037;-57
2022/04/21 13:23:45;;;;;;;1.88;0.80;;;22.20;48.70;;;;;;5012445;28;20061;-58
2022/04/21 13:26:10;;;;;;;1.00;0.60;;;22.20;48.60;;;;;;5013853;28;20045;-58
2022/04/21 13:28:36;;;;;;;3.60;1.10;;;22.20;48.60;;;;;;5013263;28;20038;-58
2022/04/21 13:33:45;;;;;;;3.83;0.63;;;22.20;48.70;;;;;;5013212;28;20049;-58
2022/04/21 13:36:11;;;;;;;1.38;0.60;;;22.20;48.70;;;;;;5013488;28;20572;-58
2022/04/21 13:38:36;;;;;;;2.03;0.80;;;22.20;48.60;;;;;;5012816;28;20045;-58
2022/04/21 13:41:02;;;;;;;1.55;0.68;;;22.30;48.70;;;;;;5012959;28;20045;-58
2022/04/21 13:43:28;;;;;;;1.65;0.80;;;22.20;48.60;;;;;;5013485;28;20038;-58
2022/04/21 13:45:55;;;;;;;1.85;0.65;;;22.20;48.60;;;;;;5012008;28;20103;-58